Time;durP1;ratioP1;P1;durP2;ratioP2;P2;SDS_P1;SDS_P2;PMS_P1;PMS_P2;Temp;Humidity;BMP_temperature;BMP_pressure;BME280_temperature;BME280_humidity;BME280_pressure;Samples;Min_cycle;Max_cycle;Signal;HPM_P1;HPM_P2
2022/07/25 00:00:27;;;;;;;17.10;15.40;;;21.30;65.40;;;20.49;61.46;97812.75;4999814;28;20485;-77
2022/07/25 00:02:55;;;;;;;15.77;14.30;;;21.30;65.60;;;20.48;61.75;97814.69;5001248;28;20468;-76
2022/07/25 00:05:23;;;;;;;16.23;14.13;;;21.20;66.10;;;20.28;61.93;97793.69;4996544;28;20878;-77
2022/07/25 00:07:51;;;;;;;16.93;15.43;;;21.20;66.10;;;20.41;62.03;97810.63;4994290;28;20512;-77
2022/07/25 00:10:19;;;;;;;15.43;14.03;;;21.20;66.30;;;20.44;62.06;97810.03;5001475;28;21331;-76
2022/07/25 00:12:47;;;;;;;15.17;14.07;;;21.10;66.30;;;20.43;61.97;97813.91;4997844;28;20514;-76
2022/07/25 00:15:14;;;;;;;16.73;15.23;;;21.10;66.40;;;20.32;62.42;97811.22;5013802;28;20474;-76
2022/07/25 00:17:42;;;;;;;15.70;14.40;;;21.10;66.70;;;20.34;62.28;97817.22;5011063;28;21099;-76
2022/07/25 00:20:10;;;;;;;15.87;14.47;;;21.10;67.00;;;20.35;62.12;97810.63;5000271;28;20834;-76
2022/07/25 00:22:38;;;;;;;15.27;14.07;;;21.10;67.00;;;20.39;61.83;97819.94;4999698;28;20454;-76
2022/07/25 00:25:06;;;;;;;17.23;15.77;;;21.10;66.90;;;20.39;62.11;97814.44;4998546;28;20452;-76
2022/07/25 00:27:34;;;;;;;15.83;14.40;;;21.10;67.10;;;20.32;62.15;97810.38;5000785;28;20482;-76
2022/07/25 00:30:02;;;;;;;15.47;13.90;;;21.10;67.30;;;20.30;62.12;97807.94;4994995;28;20476;-76
2022/07/25 00:32:29;;;;;;;15.60;14.30;;;21.00;67.30;;;20.27;62.37;97808.50;4993111;28;20955;-76
2022/07/25 00:34:57;;;;;;;16.87;15.47;;;21.00;67.50;;;20.22;62.60;97803.03;4995532;28;20990;-76
2022/07/25 00:37:24;;;;;;;16.73;15.13;;;21.00;67.70;;;20.22;62.41;97805.78;4993343;28;20462;-76
2022/07/25 00:39:52;;;;;;;15.50;14.03;;;20.90;67.60;;;20.28;62.36;97810.16;4997852;28;20480;-76
2022/07/25 00:42:20;;;;;;;15.57;14.27;;;21.00;67.70;;;20.22;62.29;97803.03;4999775;28;20471;-76
2022/07/25 00:44:49;;;;;;;14.63;13.40;;;20.90;67.70;;;20.25;62.12;97794.28;4991503;28;20983;-78
2022/07/25 00:47:16;;;;;;;16.37;14.80;;;20.90;67.80;;;20.18;62.56;97796.50;4997264;28;20482;-77
2022/07/25 00:49:43;;;;;;;15.43;14.00;;;20.90;67.90;;;19.86;62.44;97762.09;4997503;28;20475;-78
2022/07/25 00:52:11;;;;;;;16.23;14.73;;;20.90;68.00;;;20.16;62.42;97796.75;5009567;28;20452;-75
2022/07/25 00:54:39;;;;;;;15.57;14.17;;;20.90;68.30;;;20.09;62.57;97802.59;4991484;28;20484;-77
2022/07/25 00:57:06;;;;;;;14.93;13.73;;;20.80;68.20;;;20.10;62.90;97793.25;4989757;28;20547;-77
2022/07/25 00:59:34;;;;;;;15.00;13.70;;;20.80;68.50;;;20.03;62.85;97792.75;4999618;28;20456;-77
2022/07/25 01:02:02;;;;;;;14.60;13.10;;;20.70;68.60;;;20.12;62.46;97789.41;4996920;28;20470;-77
2022/07/25 01:04:29;;;;;;;14.23;12.93;;;20.80;68.50;;;20.07;62.55;97788.31;4999212;28;20554;-76
2022/07/25 01:06:56;;;;;;;15.60;14.10;;;20.80;68.50;;;20.21;62.23;97790.44;4993364;28;20460;-76
2022/07/25 01:09:23;;;;;;;15.43;14.13;;;20.80;68.50;;;20.04;62.12;97772.44;4997073;28;20515;-75
2022/07/25 01:11:51;;;;;;;16.60;14.47;;;20.90;68.50;;;20.23;61.93;97790.97;4997463;28;20486;-76
2022/07/25 01:14:18;;;;;;;14.10;13.00;;;20.90;68.10;;;20.23;61.57;97782.72;5009412;28;20479;-76
2022/07/25 01:16:45;;;;;;;14.00;12.77;;;20.90;68.00;;;20.13;62.20;97786.38;4998121;28;20465;-76
2022/07/25 01:19:14;;;;;;;15.23;13.73;;;20.80;68.30;;;20.21;61.99;97784.94;5008791;28;20467;-77
2022/07/25 01:21:43;;;;;;;14.50;13.30;;;20.90;68.30;;;20.18;61.49;97780.88;4995534;28;21030;-77
2022/07/25 01:24:11;;;;;;;14.37;13.27;;;20.90;68.40;;;20.18;61.85;97785.53;4992934;28;20498;-77
2022/07/25 01:26:38;;;;;;;14.30;13.07;;;20.90;68.30;;;20.12;61.83;97784.72;4991694;28;20456;-76
2022/07/25 01:29:06;;;;;;;14.40;12.90;;;20.80;68.30;;;20.14;61.78;97766.06;4993416;28;20456;-76
2022/07/25 01:31:33;;;;;;;15.57;13.83;;;20.80;68.20;;;20.20;61.83;97766.84;4995143;28;20479;-76
2022/07/25 01:34:01;;;;;;;14.20;13.00;;;20.80;68.30;;;20.15;61.49;97761.41;4996438;28;20472;-76
2022/07/25 01:36:28;;;;;;;14.00;12.80;;;20.80;68.20;;;20.19;61.27;97765.22;4996048;28;20460;-77
2022/07/25 01:38:57;;;;;;;14.30;13.10;;;20.80;68.00;;;20.17;61.54;97756.47;4994616;28;20971;-76
2022/07/25 01:41:24;;;;;;;14.40;13.10;;;20.90;68.20;;;20.20;61.44;97753.16;4998479;28;21047;-76
2022/07/25 01:43:51;;;;;;;13.77;12.57;;;20.90;68.30;;;20.20;61.38;97747.66;5001206;28;20453;-76
2022/07/25 01:46:19;;;;;;;14.80;13.60;;;20.80;68.10;;;20.04;61.98;97745.03;4991350;28;20478;-76
2022/07/25 01:48:46;;;;;;;14.60;13.40;;;20.80;68.30;;;20.03;61.98;97750.81;4999715;28;20452;-76
2022/07/25 01:51:14;;;;;;;14.00;12.80;;;20.70;68.50;;;19.94;62.36;97748.66;4997520;28;21129;-77
2022/07/25 01:53:41;;;;;;;13.87;12.43;;;20.70;68.70;;;20.07;62.08;97749.94;4997526;28;20466;-76
2022/07/25 01:56:10;;;;;;;13.77;12.57;;;20.70;68.80;;;20.13;61.78;97752.66;4996789;28;20467;-76
2022/07/25 01:58:37;;;;;;;13.60;12.60;;;20.70;68.50;;;19.94;62.54;97756.03;5002222;28;20471;-76
2022/07/25 02:01:05;;;;;;;13.90;12.80;;;20.70;69.00;;;19.90;62.39;97743.97;4999382;28;20538;-77
2022/07/25 02:03:32;;;;;;;14.00;12.90;;;20.60;69.00;;;20.04;61.82;97746.97;5000635;28;20474;-76
2022/07/25 02:06:03;;;;;;;13.20;12.10;;;20.70;69.00;;;19.93;62.18;97729.72;5016894;28;20894;-77
2022/07/25 02:08:32;;;;;;;14.63;13.53;;;20.70;68.80;;;19.73;62.88;97745.19;5000675;28;20522;-75
2022/07/25 02:11:03;;;;;;;13.63;12.53;;;20.50;69.20;;;19.89;63.07;97753.31;5000018;28;20525;-76
2022/07/25 02:13:32;;;;;;;13.10;12.10;;;20.50;69.50;;;19.78;63.33;97742.41;5015225;28;20476;-76
2022/07/25 02:16:00;;;;;;;14.57;13.27;;;20.40;69.70;;;19.72;63.48;97742.75;4996519;28;20464;-76
2022/07/25 02:18:27;;;;;;;13.57;12.47;;;20.40;70.00;;;19.74;63.23;97741.31;5005042;28;20467;-76
2022/07/25 02:20:54;;;;;;;14.60;13.40;;;20.30;70.20;;;19.69;63.27;97738.63;4999543;28;20474;-76
2022/07/25 02:23:21;;;;;;;14.63;13.40;;;20.40;70.10;;;19.74;63.08;97746.81;5000248;28;20468;-77
2022/07/25 02:25:50;;;;;;;13.03;12.03;;;20.40;69.90;;;19.62;63.69;97747.16;4998849;28;20507;-76
2022/07/25 02:28:18;;;;;;;14.47;13.27;;;20.40;70.30;;;19.63;63.79;97739.75;4999205;28;20617;-78
2022/07/25 02:30:46;;;;;;;15.07;13.73;;;20.30;70.50;;;19.48;64.31;97746.94;5000048;28;20479;-77
2022/07/25 02:33:14;;;;;;;15.03;13.63;;;20.20;70.80;;;19.38;64.54;97744.25;4994443;28;20459;-76
2022/07/25 02:35:41;;;;;;;14.80;13.60;;;20.10;71.20;;;19.38;64.83;97742.31;4993908;28;20544;-77
2022/07/25 02:38:08;;;;;;;14.60;13.43;;;20.10;71.60;;;19.40;65.18;97742.03;4997180;28;20452;-77
2022/07/25 02:40:36;;;;;;;14.50;13.40;;;20.10;71.90;;;19.36;65.22;97746.44;5001662;28;20480;-77
2022/07/25 02:43:03;;;;;;;14.63;13.53;;;20.10;72.40;;;19.34;65.05;97743.19;5001556;28;20509;-77
2022/07/25 02:45:30;;;;;;;14.57;13.07;;;20.10;72.30;;;19.31;65.55;97749.19;5013553;28;20488;-76
2022/07/25 02:47:59;;;;;;;15.23;13.60;;;20.00;72.50;;;19.19;65.73;97744.88;4999206;28;20528;-77
2022/07/25 02:50:27;;;;;;;15.13;13.90;;;19.90;72.80;;;19.08;66.18;97755.00;4999789;28;20466;-76
2022/07/25 02:52:54;;;;;;;15.00;13.80;;;19.80;73.10;;;19.03;66.13;97759.66;5000829;28;20470;-77
2022/07/25 02:55:22;;;;;;;14.60;13.40;;;19.70;73.40;;;18.93;66.33;97764.06;5001411;28;20462;-77
2022/07/25 02:57:49;;;;;;;15.47;14.20;;;19.70;74.00;;;18.61;66.47;97698.69;5003888;28;20490;-78
2022/07/25 03:00:17;;;;;;;19.87;14.17;;;19.60;73.90;;;19.08;65.83;97756.94;5017055;28;20467;-77
2022/07/25 03:02:45;;;;;;;15.73;14.40;;;19.70;73.90;;;19.03;66.10;97754.19;5000567;28;20560;-76
2022/07/25 03:05:16;;;;;;;15.53;14.27;;;19.70;74.10;;;19.05;66.41;97757.50;5002334;28;20517;-76
2022/07/25 03:07:45;;;;;;;14.60;13.40;;;19.70;74.50;;;18.96;66.28;97749.81;5011427;28;20520;-76
2022/07/25 03:10:14;;;;;;;15.73;14.43;;;19.70;74.40;;;18.90;66.48;97745.44;5003021;28;20458;-76
2022/07/25 03:12:42;;;;;;;14.63;13.50;;;19.70;74.50;;;18.98;66.46;97757.75;5000022;28;20483;-77
2022/07/25 03:15:12;;;;;;;14.93;13.63;;;19.70;74.80;;;18.95;66.51;97759.13;5004642;28;20947;-76
2022/07/25 03:17:41;;;;;;;14.70;13.50;;;19.70;74.90;;;19.03;66.36;97748.72;5005113;28;20459;-76
2022/07/25 03:20:09;;;;;;;14.87;13.57;;;19.70;74.90;;;18.92;67.16;97751.47;5000138;28;20458;-76
2022/07/25 03:22:39;;;;;;;15.30;13.90;;;19.70;75.30;;;18.96;66.50;97744.34;5003742;28;20456;-76
2022/07/25 03:25:07;;;;;;;15.07;13.77;;;19.70;75.30;;;18.94;66.72;97738.31;4995715;28;20499;-76
2022/07/25 03:27:34;;;;;;;15.50;14.10;;;19.70;75.40;;;18.93;66.78;97750.38;5001390;28;20451;-76
2022/07/25 03:30:02;;;;;;;14.47;13.27;;;19.70;75.50;;;18.91;66.67;97735.31;5003365;28;20463;-76
2022/07/25 03:32:29;;;;;;;15.90;14.30;;;19.70;75.60;;;18.86;67.03;97738.06;4998910;28;20482;-75
2022/07/25 03:34:57;;;;;;;15.60;14.20;;;19.60;75.60;;;18.89;66.77;97729.28;4998448;28;20455;-75
2022/07/25 03:37:24;;;;;;;16.47;13.90;;;19.60;75.90;;;19.02;66.44;97725.19;5001479;28;20467;-76
2022/07/25 03:39:53;;;;;;;16.37;14.50;;;19.70;75.80;;;19.10;65.99;97724.63;4995625;28;20455;-77
2022/07/25 03:42:22;;;;;;;15.97;14.50;;;19.80;75.30;;;19.15;65.73;97724.59;4996408;28;20858;-77
2022/07/25 03:44:50;;;;;;;14.60;13.40;;;19.90;75.10;;;19.06;65.71;97699.72;4997077;28;20509;-77
2022/07/25 03:47:18;;;;;;;16.03;14.63;;;19.90;75.00;;;19.22;65.47;97718.81;5020530;28;20513;-77
2022/07/25 03:49:45;;;;;;;15.60;14.20;;;19.90;74.80;;;19.25;65.44;97713.63;4999452;28;20961;-76
2022/07/25 03:52:12;;;;;;;15.90;14.50;;;20.00;74.60;;;19.30;64.89;97714.69;5000407;28;20474;-75
2022/07/25 03:54:40;;;;;;;15.33;14.23;;;20.10;74.40;;;19.32;64.85;97709.75;4989989;28;20451;-77
2022/07/25 03:57:10;;;;;;;15.43;14.13;;;20.10;74.40;;;19.39;64.68;97708.34;4997855;28;20838;-76
2022/07/25 03:59:37;;;;;;;15.67;14.33;;;20.10;74.10;;;19.38;64.62;97709.44;5008053;28;20443;-76
2022/07/25 04:02:05;;;;;;;16.77;15.20;;;20.10;74.20;;;19.41;64.21;97702.59;5022526;28;20518;-76
2022/07/25 04:04:33;;;;;;;14.10;12.90;;;20.20;74.00;;;19.50;64.16;97703.66;5022698;28;20465;-76
2022/07/25 04:07:00;;;;;;;16.10;14.33;;;20.20;73.80;;;19.52;63.92;97706.09;5011796;28;20834;-76
2022/07/25 04:09:28;;;;;;;15.10;13.77;;;20.30;73.60;;;19.48;64.33;97700.34;5002831;28;20951;-76
2022/07/25 04:11:55;;;;;;;15.93;14.47;;;20.30;73.70;;;19.53;64.17;97708.56;4999437;28;20456;-76
2022/07/25 04:14:23;;;;;;;15.07;13.50;;;20.30;73.60;;;19.51;64.25;97708.03;5010527;28;21169;-76
2022/07/25 04:16:50;;;;;;;16.40;15.00;;;20.30;73.50;;;19.57;64.27;97700.63;4999964;28;20470;-76
2022/07/25 04:19:17;;;;;;;14.80;13.60;;;20.30;73.60;;;19.54;64.23;97696.50;5017955;28;20463;-79
2022/07/25 04:21:45;;;;;;;14.63;13.43;;;20.40;73.60;;;19.34;64.35;97655.53;5004806;28;20458;-77
2022/07/25 04:24:12;;;;;;;16.30;15.07;;;20.40;73.60;;;19.74;62.79;97648.16;5018296;28;20474;-75
2022/07/25 04:26:40;;;;;;;15.13;13.30;;;20.80;72.80;;;20.72;60.33;97697.84;4999509;28;20565;-77
2022/07/25 04:29:07;;;;;;;14.03;12.90;;;21.40;71.50;;;21.06;59.12;97685.97;5003987;28;20482;-76
2022/07/25 04:31:35;;;;;;;15.80;14.47;;;22.00;69.90;;;21.16;58.84;97694.09;5003962;28;20487;-76
2022/07/25 04:34:03;;;;;;;15.73;14.10;;;22.20;69.30;;;21.68;57.25;97674.22;5003754;28;20492;-76
2022/07/25 04:36:30;;;;;;;15.40;14.10;;;22.80;68.30;;;22.16;55.63;97689.72;5000239;28;20461;-76
2022/07/25 04:38:57;;;;;;;15.13;13.87;;;23.30;66.80;;;22.21;55.33;97686.88;5001778;28;20524;-86
2022/07/25 04:41:25;;;;;;;15.23;13.97;;;23.50;66.00;;;22.84;53.71;97672.06;5007451;28;20468;-85
2022/07/25 04:43:52;;;;;;;15.33;14.03;;;23.90;65.60;;;23.55;51.96;97679.19;5001534;28;20464;-82
2022/07/25 04:46:20;;;;;;;14.60;13.30;;;24.40;64.90;;;24.24;49.63;97675.44;5008275;28;20453;-86
2022/07/25 04:48:49;;;;;;;15.53;14.23;;;25.10;63.30;;;24.95;47.97;97686.91;4997509;28;20459;-85
2022/07/25 04:51:18;;;;;;;14.47;13.27;;;25.90;61.40;;;24.93;47.68;97680.84;5002384;28;20467;-82
2022/07/25 04:53:46;;;;;;;14.10;13.00;;;25.90;60.70;;;25.67;45.88;97684.81;4995873;28;20471;-85
2022/07/25 04:56:13;;;;;;;13.17;11.97;;;26.40;59.90;;;26.55;44.20;97686.78;4996592;28;20485;-85
2022/07/25 04:58:40;;;;;;;14.47;13.10;;;27.20;58.80;;;27.24;42.51;97687.69;5001328;28;20458;-86
2022/07/25 05:01:08;;;;;;;13.77;12.13;;;28.00;57.40;;;27.80;41.34;97685.88;5003033;28;20447;-86
2022/07/25 05:03:35;;;;;;;13.17;12.13;;;28.60;56.40;;;27.86;40.60;97679.81;5006787;28;20455;-79
2022/07/25 05:06:04;;;;;;;13.13;11.93;;;28.90;55.10;;;27.87;40.79;97666.75;4998815;28;20541;-86
2022/07/25 05:08:32;;;;;;;14.00;12.47;;;28.80;55.00;;;27.32;41.45;97665.81;4997688;28;20460;-80
2022/07/25 05:10:59;;;;;;;13.73;12.43;;;28.40;54.80;;;27.66;41.02;97664.75;5000738;28;20476;-88
2022/07/25 05:13:26;;;;;;;12.97;11.97;;;28.50;54.70;;;27.98;39.59;97628.28;4997685;28;20475;-85
2022/07/25 05:15:53;;;;;;;13.50;12.20;;;29.10;53.90;;;28.26;39.40;97663.81;4997260;28;20456;-83
2022/07/25 05:18:21;;;;;;;14.43;12.73;;;29.20;53.30;;;28.39;39.32;97657.16;4999193;28;20452;-81
2022/07/25 05:20:48;;;;;;;12.27;11.27;;;29.30;53.40;;;28.53;38.77;97631.03;4995644;28;20478;-82
2022/07/25 05:23:17;;;;;;;12.83;11.77;;;29.70;52.70;;;28.56;39.27;97647.81;4996321;28;21049;-77
2022/07/25 05:25:44;;;;;;;13.50;12.30;;;29.80;52.50;;;27.62;40.31;97655.50;5010926;28;20444;-70
2022/07/25 05:28:13;;;;;;;13.63;12.43;;;29.20;52.70;;;27.18;41.59;97649.38;4973483;28;20456;-72
2022/07/25 05:30:41;;;;;;;13.03;12.03;;;28.40;53.40;;;27.48;41.18;97654.91;5003280;28;20455;-71
2022/07/25 05:33:08;;;;;;;12.90;11.90;;;28.60;53.40;;;27.07;41.98;97646.19;5001550;28;20541;-71
2022/07/25 05:35:35;;;;;;;13.33;12.23;;;28.40;53.50;;;27.65;41.00;97654.81;5003105;28;20471;-73
2022/07/25 05:38:02;;;;;;;16.03;12.77;;;28.50;53.50;;;27.93;40.00;97657.06;4995372;28;20882;-72
2022/07/25 05:40:31;;;;;;;17.17;15.50;;;28.90;53.00;;;28.27;39.67;97655.13;5008081;28;20582;-72
2022/07/25 05:42:58;;;;;;;16.73;15.03;;;29.30;52.60;;;27.34;41.39;97653.19;4994128;28;21028;-71
2022/07/25 05:45:26;;;;;;;14.63;13.23;;;28.80;52.70;;;27.41;41.50;97623.00;4994211;28;21027;-71
2022/07/25 05:47:53;;;;;;;13.60;12.53;;;28.70;53.00;;;27.84;40.53;97650.78;4996462;28;20462;-72
2022/07/25 05:50:21;;;;;;;12.37;11.20;;;28.90;52.80;;;28.12;39.96;97647.41;5008713;28;20470;-72
2022/07/25 05:52:48;;;;;;;13.37;12.10;;;29.20;52.50;;;27.98;40.35;97654.09;4990605;28;21107;-72
2022/07/25 05:55:16;;;;;;;13.37;12.27;;;29.20;52.40;;;28.07;40.05;97650.41;4990414;28;20473;-72
2022/07/25 05:57:44;;;;;;;13.03;11.93;;;29.20;52.50;;;28.11;40.23;97652.16;4989339;28;20475;-73
2022/07/25 06:00:13;;;;;;;12.47;11.47;;;29.50;52.50;;;28.55;39.64;97648.16;4993758;28;20463;-72
2022/07/25 06:02:40;;;;;;;12.13;11.13;;;29.80;52.10;;;28.63;38.93;97649.22;4993715;28;20469;-72
2022/07/25 06:05:09;;;;;;;11.20;10.20;;;30.10;51.40;;;28.50;38.91;97651.97;4992120;28;20448;-72
2022/07/25 06:07:36;;;;;;;10.70;9.90;;;30.10;51.30;;;27.91;40.53;97641.91;5003145;28;20454;-71
2022/07/25 06:10:03;;;;;;;11.83;10.83;;;29.40;51.70;;;28.21;39.89;97641.84;4989258;28;20467;-71
2022/07/25 06:12:34;;;;;;;10.57;9.57;;;29.50;52.00;;;28.30;39.55;97636.19;4993023;28;20487;-72
2022/07/25 06:15:02;;;;;;;11.73;10.53;;;29.70;51.50;;;27.85;39.77;97583.03;4987338;28;20577;-72
2022/07/25 06:17:30;;;;;;;10.10;9.17;;;29.60;51.60;;;28.91;38.23;97648.59;4996581;28;20815;-71
2022/07/25 06:19:57;;;;;;;11.33;10.23;;;30.10;51.20;;;28.84;38.56;97646.41;4999937;28;20471;-72
2022/07/25 06:22:25;;;;;;;10.80;9.90;;;30.00;50.90;;;28.13;39.69;97640.69;4998874;28;20459;-71
2022/07/25 06:24:52;;;;;;;9.20;8.40;;;29.70;51.10;;;26.64;42.71;97647.97;4996911;28;20470;-73
2022/07/25 06:27:19;;;;;;;10.70;9.60;;;28.30;52.00;;;26.15;44.17;97637.94;4995952;28;20462;-71
2022/07/25 06:29:46;;;;;;;10.03;9.23;;;27.40;53.10;;;25.92;44.59;97651.16;4993820;28;20518;-72
2022/07/25 06:32:15;;;;;;;10.90;10.00;;;26.90;53.90;;;25.53;45.50;97656.50;4996835;28;20548;-71
2022/07/25 06:34:42;;;;;;;11.70;9.40;;;26.40;54.30;;;25.11;45.66;97602.44;4992825;28;20491;-71
2022/07/25 06:37:09;;;;;;;9.77;8.97;;;26.20;54.80;;;25.29;45.66;97635.63;4994220;28;20470;-81
2022/07/25 06:39:37;;;;;;;10.40;9.50;;;26.10;55.10;;;25.28;46.18;97647.81;5006349;28;20489;-82
2022/07/25 06:42:05;;;;;;;10.60;9.77;;;25.90;55.20;;;25.25;46.17;97642.91;4996584;28;20558;-75
2022/07/25 06:44:33;;;;;;;10.40;9.50;;;25.90;55.20;;;25.17;46.24;97627.94;5000835;28;20525;-88
2022/07/25 06:47:00;;;;;;;9.60;8.90;;;25.90;55.30;;;25.27;45.70;97643.44;4990911;28;20443;-76
2022/07/25 06:49:29;;;;;;;9.67;8.93;;;25.90;55.30;;;25.46;45.65;97641.19;4998869;28;20467;-76
2022/07/25 06:51:56;;;;;;;10.57;9.67;;;26.10;55.30;;;25.68;44.92;97630.34;4996693;28;20469;-76
2022/07/25 06:54:23;;;;;;;9.37;8.47;;;26.30;55.20;;;25.66;45.02;97625.13;4992764;28;20533;-75
2022/07/25 06:56:50;;;;;;;10.50;9.70;;;26.30;55.00;;;25.78;44.91;97623.66;4998725;28;20510;-74
2022/07/25 06:59:18;;;;;;;8.93;8.27;;;26.40;55.10;;;25.62;44.54;97563.31;5004019;28;20466;-73
2022/07/25 07:01:46;;;;;;;9.90;9.17;;;26.50;54.90;;;26.06;43.91;97617.78;5001367;28;20473;-76
2022/07/25 07:04:13;;;;;;;9.00;8.40;;;26.70;54.70;;;26.01;44.50;97611.28;5000071;28;20461;-74
2022/07/25 07:06:42;;;;;;;9.50;8.60;;;26.60;54.70;;;26.23;44.59;97612.25;4996701;28;20461;-73
2022/07/25 07:09:10;;;;;;;11.63;9.43;;;26.80;55.10;;;26.52;43.56;97612.63;5003691;28;20461;-75
2022/07/25 07:11:37;;;;;;;10.40;9.60;;;27.00;54.60;;;26.81;43.15;97609.13;5009355;28;20466;-75
2022/07/25 07:14:05;;;;;;;9.80;9.10;;;27.20;54.60;;;26.59;43.34;97608.22;4998657;28;20482;-77
2022/07/25 07:16:32;;;;;;;10.40;9.50;;;27.20;54.30;;;26.56;43.11;97608.88;5008821;28;20468;-74
2022/07/25 07:18:59;;;;;;;9.90;9.00;;;27.20;54.20;;;26.52;43.42;97605.16;5016660;28;20461;-76
2022/07/25 07:21:27;;;;;;;9.33;8.67;;;27.10;54.10;;;26.51;42.54;97562.00;4999943;28;20462;-75
2022/07/25 07:23:55;;;;;;;9.00;8.30;;;27.30;54.00;;;26.87;41.85;97601.47;5001283;28;20463;-74
2022/07/25 07:26:23;;;;;;;9.60;8.90;;;27.40;53.50;;;26.94;41.80;97604.50;4997152;28;20460;-75
2022/07/25 07:28:53;;;;;;;10.00;9.03;;;27.50;53.50;;;27.00;41.69;97600.41;4999624;28;20495;-75
2022/07/25 07:31:20;;;;;;;9.57;8.73;;;27.50;53.40;;;27.23;41.52;97602.09;4998416;28;20463;-74
2022/07/25 07:33:47;;;;;;;9.23;8.47;;;27.70;53.50;;;27.37;40.85;97596.28;4992894;28;20483;-75
2022/07/25 07:36:14;;;;;;;9.50;8.80;;;27.90;53.00;;;27.48;39.91;97602.22;5002291;28;20459;-74
2022/07/25 07:38:43;;;;;;;8.83;8.30;;;28.00;52.40;;;27.54;39.76;97600.91;5001514;28;20464;-73
2022/07/25 07:41:12;;;;;;;8.80;8.20;;;28.10;52.20;;;27.86;39.09;97599.31;4996967;28;20471;-76
2022/07/25 07:43:39;;;;;;;8.83;8.17;;;28.30;51.90;;;27.86;38.99;97595.75;5003070;28;20466;-72
2022/07/25 07:46:07;;;;;;;10.43;9.43;;;28.40;51.80;;;28.03;38.70;97591.19;5011159;28;20452;-75
2022/07/25 07:48:35;;;;;;;9.00;8.40;;;28.50;51.50;;;28.19;38.57;97597.75;4996264;28;20467;-72
2022/07/25 07:51:03;;;;;;;9.40;8.60;;;28.60;51.50;;;28.39;37.53;97600.78;4999590;28;20856;-80
2022/07/25 07:56:18;;;;;;;9.60;8.90;;;28.80;50.50;;;28.31;37.15;97583.06;5000172;28;20467;-82
2022/07/25 07:58:46;;;;;;;9.10;8.20;;;28.90;50.50;;;28.21;37.22;97573.22;5019386;28;20460;-83
2022/07/25 08:01:13;;;;;;;8.67;8.00;;;28.80;50.50;;;28.37;37.03;97581.72;4999237;28;20470;-82
2022/07/25 08:03:41;;;;;;;8.13;7.53;;;28.90;50.20;;;28.30;36.44;97558.44;5000972;28;20451;-82
2022/07/25 08:06:08;;;;;;;7.93;7.43;;;28.90;49.90;;;28.64;36.13;97570.28;4998582;28;20985;-82
2022/07/25 08:08:35;;;;;;;8.87;8.10;;;29.00;49.90;;;28.40;36.48;97569.06;5008587;28;20460;-80
2022/07/25 08:11:03;;;;;;;8.90;8.20;;;29.00;49.50;;;28.62;35.88;97559.50;5003008;28;21013;-81
2022/07/25 08:13:33;;;;;;;9.87;8.93;;;29.10;49.60;;;28.83;35.57;97576.09;5006416;28;20475;-80
2022/07/25 08:16:03;;;;;;;8.83;8.07;;;29.30;49.20;;;28.91;35.15;97545.75;5000958;28;20546;-80
2022/07/25 08:18:32;;;;;;;8.27;7.67;;;29.40;49.30;;;29.18;35.10;97573.97;4999780;28;20565;-82
2022/07/25 08:21:02;;;;;;;8.77;8.13;;;29.60;49.10;;;29.15;35.34;97564.38;5004405;28;20530;-81
2022/07/25 08:23:32;;;;;;;9.20;8.30;;;29.60;49.00;;;29.11;34.61;97516.97;5008731;28;20471;-80
2022/07/25 08:25:59;;;;;;;8.07;7.47;;;29.80;48.90;;;29.30;34.71;97537.00;5011401;28;20455;-81
2022/07/25 08:28:27;;;;;;;10.23;8.03;;;29.80;48.80;;;29.40;34.80;97547.59;5000692;28;20466;-81
2022/07/25 08:30:55;;;;;;;8.37;7.57;;;29.90;48.80;;;29.37;34.42;97557.50;4995982;28;20468;-79
2022/07/25 08:33:23;;;;;;;8.47;7.87;;;29.90;48.30;;;29.55;34.02;97543.31;5012652;28;20471;-79
2022/07/25 08:35:53;;;;;;;9.07;8.37;;;29.90;48.20;;;29.69;34.01;97546.50;5002524;28;20519;-81
2022/07/25 08:38:22;;;;;;;9.47;8.67;;;30.00;48.10;;;29.88;33.26;97553.38;4999429;28;20472;-80
2022/07/25 08:40:50;;;;;;;9.77;8.67;;;30.20;47.90;;;29.92;33.12;97540.34;4994959;28;20475;-80
2022/07/25 08:43:19;;;;;;;8.93;8.03;;;30.30;47.60;;;29.91;32.36;97533.19;5002619;28;20471;-80
2022/07/25 08:45:48;;;;;;;8.70;8.00;;;30.40;47.30;;;29.92;33.29;97540.34;4992157;28;20456;-77
2022/07/25 08:48:20;;;;;;;8.90;8.10;;;30.40;47.50;;;30.04;32.82;97535.94;4996513;28;20475;-79
2022/07/25 08:50:48;;;;;;;8.27;7.67;;;30.40;47.50;;;30.01;32.28;97526.28;5011566;28;20570;-77
2022/07/25 08:53:17;;;;;;;8.80;8.00;;;30.50;47.10;;;29.99;32.63;97534.19;4999888;28;20475;-79
2022/07/25 08:55:45;;;;;;;9.77;8.97;;;30.30;47.20;;;30.02;32.47;97515.97;4990653;28;21223;-80
2022/07/25 08:58:14;;;;;;;9.73;8.87;;;30.50;47.50;;;30.32;32.71;97530.28;4994510;28;20830;-78
2022/07/25 09:00:42;;;;;;;8.30;7.70;;;30.60;47.30;;;30.44;32.51;97518.25;4995719;28;20457;-77
2022/07/25 09:03:10;;;;;;;8.70;7.97;;;30.70;47.20;;;30.36;32.57;97516.44;5001316;28;20555;-76
2022/07/25 09:05:40;;;;;;;17.30;9.53;;;30.80;47.20;;;30.35;32.77;97492.56;4994490;28;20457;-79
2022/07/25 09:08:09;;;;;;;9.27;8.50;;;30.90;47.40;;;30.41;32.27;97505.06;4992732;28;20471;-73
2022/07/25 09:10:38;;;;;;;8.90;8.30;;;30.90;47.00;;;30.32;32.68;97501.63;4989091;28;20459;-73
2022/07/25 09:13:12;;;;;;;9.40;8.67;;;30.90;47.00;;;30.20;32.41;97489.41;4990495;28;20478;-72
2022/07/25 09:15:42;;;;;;;9.50;8.70;;;30.70;46.80;;;30.49;32.37;97490.13;4989564;28;21261;-72
2022/07/25 09:18:13;;;;;;;9.33;8.60;;;30.80;47.00;;;30.73;31.60;97499.47;4990236;28;20994;-75
2022/07/25 09:20:45;;;;;;;9.67;8.80;;;31.00;46.80;;;30.80;31.52;97494.06;4989128;28;20471;-72
2022/07/25 09:23:16;;;;;;;9.90;9.20;;;31.10;46.60;;;30.85;31.89;97490.19;4993755;28;20526;-74
2022/07/25 09:25:43;;;;;;;9.63;8.97;;;31.20;46.70;;;31.03;31.85;97489.78;4993349;28;20464;-73
2022/07/25 09:28:15;;;;;;;10.00;9.20;;;31.30;46.90;;;30.84;32.18;97487.75;4996842;28;20468;-73
2022/07/25 09:30:54;;;;;;;9.67;8.97;;;31.20;46.80;;;31.05;31.31;97482.66;4991436;28;20519;-73
2022/07/25 09:33:23;;;;;;;9.23;8.53;;;31.30;46.80;;;30.88;31.97;97477.50;5000188;28;20475;-70
2022/07/25 09:35:53;;;;;;;9.73;8.93;;;31.30;46.60;;;30.80;31.79;97476.53;4998680;28;20478;-70
2022/07/25 09:38:22;;;;;;;9.30;8.50;;;31.20;46.40;;;30.90;31.81;97472.38;5009801;28;20480;-70
2022/07/25 09:40:58;;;;;;;9.27;8.47;;;31.30;46.80;;;31.05;32.03;97468.72;4989777;28;20470;-70
2022/07/25 09:43:37;;;;;;;9.77;8.97;;;31.40;46.90;;;31.00;32.41;97466.19;4995308;28;20466;-71
2022/07/25 09:46:04;;;;;;;10.07;9.33;;;31.40;47.00;;;30.77;32.46;97464.13;4998442;28;20843;-71
2022/07/25 09:48:32;;;;;;;10.30;9.30;;;31.30;46.90;;;30.94;32.36;97476.03;4997270;28;20462;-71
2022/07/25 09:51:03;;;;;;;10.20;9.40;;;31.30;47.20;;;31.13;31.95;97457.69;4995426;28;20475;-71
2022/07/25 09:53:31;;;;;;;9.73;8.87;;;31.50;47.00;;;31.20;32.02;97461.44;4997627;28;20478;-71
2022/07/25 09:55:58;;;;;;;11.77;10.70;;;31.60;46.70;;;31.35;31.40;97454.22;4991928;28;20474;-70
2022/07/25 09:58:27;;;;;;;10.37;9.47;;;31.70;46.60;;;31.53;31.81;97456.56;4995161;28;20958;-72
2022/07/25 10:01:02;;;;;;;10.33;9.37;;;31.80;46.80;;;31.75;30.86;97445.78;4995383;28;20456;-72
2022/07/25 10:03:42;;;;;;;10.33;9.50;;;32.00;46.40;;;31.70;30.96;97440.50;5010371;28;20459;-71
2022/07/25 10:06:21;;;;;;;10.03;9.33;;;32.10;46.20;;;31.63;31.25;97450.38;4994980;28;20899;-72
2022/07/25 10:08:50;;;;;;;10.17;9.20;;;32.10;46.30;;;31.51;30.76;97456.13;4995913;28;20489;-72
2022/07/25 10:11:24;;;;;;;9.90;9.20;;;31.90;46.00;;;31.44;31.10;97426.09;4994016;28;20853;-72
2022/07/25 10:13:52;;;;;;;10.27;9.57;;;31.90;45.90;;;31.56;30.75;97444.66;4998717;28;20485;-72
2022/07/25 10:16:22;;;;;;;9.10;8.53;;;31.90;45.70;;;31.56;30.42;97427.91;4999500;28;20537;-72